Time;durP1;ratioP1;P1;durP2;ratioP2;P2;SDS_P1;SDS_P2;PMS_P1;PMS_P2;Temp;Humidity;BMP_temperature;BMP_pressure;BME280_temperature;BME280_humidity;BME280_pressure;Samples;Min_cycle;Max_cycle;Signal;HPM_P1;HPM_P2
2021/05/29 00:00:53;;;;;;;4.25;1.10;;;17.40;67.80;;;;;;5095386;28;20021;-72
2021/05/29 00:03:24;;;;;;;5.35;1.25;;;17.40;68.10;;;;;;5095603;28;20020;-72
2021/05/29 00:05:50;;;;;;;2.10;1.08;;;17.40;68.10;;;;;;5095462;28;20449;-73
2021/05/29 00:08:16;;;;;;;5.28;1.52;;;17.30;67.50;;;;;;5095330;28;20009;-71
2021/05/29 00:10:45;;;;;;;4.53;1.13;;;17.30;67.90;;;;;;5095436;28;20538;-72
2021/05/29 00:13:11;;;;;;;4.75;1.27;;;17.20;68.20;;;;;;5095266;28;20095;-71
2021/05/29 00:15:38;;;;;;;4.50;1.30;;;17.20;68.40;;;;;;5095483;28;20494;-72
2021/05/29 00:18:05;;;;;;;5.95;1.50;;;17.20;68.50;;;;;;5095118;28;20031;-71
2021/05/29 00:20:31;;;;;;;3.25;1.38;;;17.20;68.30;;;;;;5094461;28;20016;-72
2021/05/29 00:22:57;;;;;;;4.05;1.20;;;17.20;68.10;;;;;;5095239;28;20039;-71
2021/05/29 00:25:22;;;;;;;2.90;1.30;;;17.20;67.90;;;;;;5095036;28;20939;-71
2021/05/29 00:27:48;;;;;;;4.32;1.30;;;17.10;67.30;;;;;;5094691;28;20024;-70
2021/05/29 00:30:15;;;;;;;3.35;1.13;;;17.10;67.20;;;;;;5095003;28;20375;-72
2021/05/29 00:32:40;;;;;;;1.52;1.00;;;17.00;66.60;;;;;;5094631;28;20425;-71
2021/05/29 00:35:08;;;;;;;1.95;1.20;;;17.00;66.80;;;;;;5094367;28;20063;-72
2021/05/29 00:37:35;;;;;;;3.75;1.10;;;16.90;66.90;;;;;;5094893;28;20024;-71
2021/05/29 00:40:00;;;;;;;2.70;0.95;;;16.90;66.70;;;;;;5094949;28;20073;-72
2021/05/29 00:42:26;;;;;;;2.75;1.40;;;16.90;67.20;;;;;;5094923;28;20028;-72
2021/05/29 00:44:55;;;;;;;2.10;1.23;;;16.80;67.20;;;;;;5094489;28;20073;-74
2021/05/29 00:47:23;;;;;;;3.83;1.10;;;16.80;66.90;;;;;;5094654;28;20074;-75
2021/05/29 00:49:51;;;;;;;3.92;1.02;;;16.70;66.90;;;;;;5094371;28;20008;-74
2021/05/29 00:52:18;;;;;;;3.83;1.25;;;16.70;67.40;;;;;;5094603;28;20024;-72
2021/05/29 00:54:45;;;;;;;4.78;1.10;;;16.70;67.30;;;;;;5094603;28;20023;-72
2021/05/29 00:57:12;;;;;;;3.20;1.30;;;16.70;67.40;;;;;;5094468;28;20064;-71
2021/05/29 00:59:38;;;;;;;3.88;1.10;;;16.70;67.40;;;;;;5091143;28;20035;-72
2021/05/29 01:02:09;;;;;;;2.17;1.00;;;16.70;67.50;;;;;;5091667;28;20487;-71
2021/05/29 01:04:35;;;;;;;2.95;1.77;;;16.60;67.40;;;;;;5092590;28;20032;-72
2021/05/29 01:07:01;;;;;;;2.15;1.20;;;16.60;67.60;;;;;;5094119;28;20081;-72
2021/05/29 01:09:28;;;;;;;1.85;1.00;;;16.60;67.80;;;;;;5094150;28;20028;-71
2021/05/29 01:11:54;;;;;;;3.75;1.05;;;16.60;67.80;;;;;;5092803;28;20031;-72
2021/05/29 01:14:20;;;;;;;3.80;1.00;;;16.60;67.60;;;;;;5091991;28;20020;-71
2021/05/29 01:17:00;;;;;;;1.75;0.90;;;16.50;67.70;;;;;;5093327;28;20161;-71
2021/05/29 01:19:27;;;;;;;3.60;1.30;;;16.60;67.80;;;;;;5092230;28;20035;-71
2021/05/29 01:21:54;;;;;;;2.30;1.20;;;16.50;67.70;;;;;;5092754;28;20035;-72
2021/05/29 01:24:22;;;;;;;11.55;1.80;;;16.50;67.70;;;;;;5093939;28;20019;-71
2021/05/29 01:26:49;;;;;;;3.78;1.30;;;16.50;68.00;;;;;;5093897;28;20028;-71
2021/05/29 01:29:15;;;;;;;3.47;1.40;;;16.40;67.90;;;;;;5093403;28;20043;-71
2021/05/29 01:31:46;;;;;;;4.60;1.35;;;16.40;68.40;;;;;;5093580;28;20073;-72
2021/05/29 01:34:13;;;;;;;5.00;1.63;;;16.40;68.70;;;;;;5093201;28;20026;-71
2021/05/29 01:36:40;;;;;;;3.83;1.60;;;16.40;68.90;;;;;;5093424;28;20032;-71
2021/05/29 01:39:08;;;;;;;2.97;1.48;;;16.40;69.40;;;;;;5075380;28;20123;-72
2021/05/29 01:41:35;;;;;;;6.00;1.63;;;16.40;69.30;;;;;;5093184;28;20032;-71
2021/05/29 01:44:01;;;;;;;5.10;1.70;;;16.40;69.20;;;;;;5092972;28;20027;-71
2021/05/29 01:46:27;;;;;;;4.40;1.90;;;16.50;69.20;;;;;;5093414;28;20024;-72
2021/05/29 01:48:53;;;;;;;4.05;1.27;;;16.50;69.20;;;;;;5093519;28;20062;-72
2021/05/29 01:51:22;;;;;;;5.28;1.83;;;16.50;69.30;;;;;;5093089;28;20020;-71
2021/05/29 01:53:48;;;;;;;3.75;1.50;;;16.40;69.30;;;;;;5093064;28;20142;-71
2021/05/29 01:56:14;;;;;;;2.88;1.40;;;16.40;69.60;;;;;;5092886;28;20526;-72
2021/05/29 01:58:41;;;;;;;4.78;1.30;;;16.40;69.60;;;;;;5092098;28;20020;-71
2021/05/29 02:01:08;;;;;;;3.45;1.20;;;16.40;69.60;;;;;;5092914;28;20024;-71
2021/05/29 02:03:36;;;;;;;2.83;1.50;;;16.40;69.50;;;;;;5093242;28;20020;-71
2021/05/29 02:06:03;;;;;;;3.42;1.25;;;16.40;69.70;;;;;;5093252;28;20063;-71
2021/05/29 02:08:29;;;;;;;3.58;1.30;;;16.40;69.70;;;;;;5074931;28;20353;-71
2021/05/29 02:10:55;;;;;;;4.32;1.20;;;16.40;69.50;;;;;;5093389;28;20036;-71
2021/05/29 02:13:32;;;;;;;3.55;1.52;;;16.40;69.20;;;;;;5093023;28;20024;-71
2021/05/29 02:15:59;;;;;;;3.15;1.60;;;16.40;69.20;;;;;;5093179;28;20357;-71
2021/05/29 02:18:25;;;;;;;4.15;1.58;;;16.40;69.00;;;;;;5093024;28;20064;-72
2021/05/29 02:21:06;;;;;;;3.65;1.27;;;16.40;69.30;;;;;;5093035;28;20415;-71
2021/05/29 02:23:34;;;;;;;3.30;1.30;;;16.40;69.50;;;;;;5093092;28;20044;-72
2021/05/29 02:26:06;;;;;;;8.25;1.30;;;16.30;69.70;;;;;;5093072;28;20024;-71
2021/05/29 02:28:36;;;;;;;14.50;1.60;;;16.30;69.70;;;;;;5092446;28;20511;-71
2021/05/29 02:31:03;;;;;;;6.25;1.48;;;16.30;69.20;;;;;;5092104;28;20024;-71
2021/05/29 02:33:29;;;;;;;5.68;1.40;;;16.30;68.70;;;;;;5092930;28;20020;-71
2021/05/29 02:35:55;;;;;;;3.78;1.65;;;16.30;68.50;;;;;;5092838;28;20032;-71
2021/05/29 02:38:21;;;;;;;4.15;1.23;;;16.30;68.70;;;;;;5092798;28;20024;-72
2021/05/29 02:40:47;;;;;;;7.18;1.48;;;16.30;68.80;;;;;;5093040;28;20078;-71
2021/05/29 02:43:13;;;;;;;6.28;1.30;;;16.30;68.80;;;;;;5092913;28;20028;-71
2021/05/29 02:45:39;;;;;;;4.68;1.85;;;16.30;68.90;;;;;;5097028;28;20467;-71
2021/05/29 02:48:13;;;;;;;5.18;1.20;;;16.20;68.50;;;;;;5096784;28;20024;-71
2021/05/29 02:50:39;;;;;;;6.63;1.10;;;16.20;68.90;;;;;;5097183;28;20032;-72
2021/05/29 02:53:06;;;;;;;6.38;1.10;;;16.20;69.00;;;;;;5096782;28;20028;-71
2021/05/29 02:55:32;;;;;;;2.10;1.10;;;16.20;68.70;;;;;;5078715;28;20039;-71
2021/05/29 02:57:59;;;;;;;4.03;1.00;;;16.20;68.40;;;;;;5096818;28;20092;-71
2021/05/29 03:00:30;;;;;;;2.50;0.95;;;16.20;68.30;;;;;;5096673;28;20114;-71
2021/05/29 03:02:57;;;;;;;5.05;1.10;;;16.20;68.20;;;;;;5096572;28;20464;-71
2021/05/29 03:05:24;;;;;;;1.77;0.90;;;16.20;68.20;;;;;;5095614;28;20035;-71
2021/05/29 03:07:51;;;;;;;4.72;1.10;;;16.20;68.80;;;;;;5095346;28;20031;-71
2021/05/29 03:10:21;;;;;;;4.88;1.10;;;16.10;68.60;;;;;;5096610;28;20103;-71
2021/05/29 03:12:47;;;;;;;3.70;1.38;;;16.10;69.10;;;;;;5096335;28;20016;-71
2021/05/29 03:15:19;;;;;;;2.30;1.10;;;16.10;69.20;;;;;;5077939;28;20123;-71
2021/05/29 03:17:45;;;;;;;2.63;1.27;;;16.10;69.10;;;;;;5076933;28;20032;-71
2021/05/29 03:20:14;;;;;;;2.00;1.40;;;16.10;69.30;;;;;;5096020;28;20020;-71
2021/05/29 03:22:41;;;;;;;3.38;1.17;;;16.10;69.50;;;;;;5095169;28;20108;-73
2021/05/29 03:25:07;;;;;;;3.55;1.10;;;16.10;69.60;;;;;;5096036;28;20105;-71
2021/05/29 03:27:34;;;;;;;3.13;1.38;;;16.10;69.80;;;;;;5095681;28;20480;-71
2021/05/29 03:30:00;;;;;;;2.00;1.15;;;16.10;70.10;;;;;;5094284;28;20469;-72
2021/05/29 03:32:26;;;;;;;2.17;1.10;;;16.10;70.20;;;;;;5094254;28;20043;-72
2021/05/29 03:34:51;;;;;;;3.00;1.20;;;16.10;70.40;;;;;;5095919;28;20106;-72
2021/05/29 03:37:17;;;;;;;3.45;1.70;;;16.10;70.50;;;;;;5095803;28;20396;-72
2021/05/29 03:39:43;;;;;;;9.68;1.90;;;16.10;70.60;;;;;;5095928;28;20020;-71
2021/05/29 03:42:08;;;;;;;1.58;1.08;;;16.10;70.70;;;;;;5095958;28;20030;-72
2021/05/29 03:44:34;;;;;;;4.55;1.20;;;16.10;70.50;;;;;;5096055;28;20022;-72
2021/05/29 03:47:00;;;;;;;3.25;1.20;;;16.10;70.00;;;;;;5095826;28;20433;-75
2021/05/29 03:49:26;;;;;;;2.33;1.00;;;16.10;69.60;;;;;;5095858;28;20539;-72
2021/05/29 03:51:52;;;;;;;4.43;1.08;;;16.10;70.00;;;;;;5095841;28;20104;-72
2021/05/29 03:54:18;;;;;;;6.53;1.13;;;16.10;70.10;;;;;;5095818;28;20016;-72
2021/05/29 03:56:43;;;;;;;3.85;1.00;;;16.10;69.80;;;;;;5094566;28;20032;-71
2021/05/29 03:59:12;;;;;;;2.75;1.20;;;16.10;69.80;;;;;;5095280;28;20504;-71
2021/05/29 04:01:39;;;;;;;3.70;1.00;;;16.10;69.50;;;;;;5095659;28;20484;-72
2021/05/29 04:04:06;;;;;;;4.40;0.98;;;16.00;69.30;;;;;;5095590;28;20024;-72
2021/05/29 04:06:32;;;;;;;2.20;1.30;;;16.00;69.60;;;;;;5095447;28;20035;-73
2021/05/29 04:08:58;;;;;;;4.53;1.10;;;16.00;69.80;;;;;;5094185;28;20028;-72
2021/05/29 04:11:24;;;;;;;3.47;1.15;;;16.00;70.20;;;;;;5094701;28;20103;-72
2021/05/29 04:13:49;;;;;;;4.75;1.20;;;16.00;70.60;;;;;;5095337;28;20024;-72
2021/05/29 04:16:15;;;;;;;4.10;1.00;;;16.00;70.80;;;;;;5095044;28;20043;-71
2021/05/29 04:18:41;;;;;;;3.20;0.98;;;16.00;71.20;;;;;;5095253;28;20020;-72
2021/05/29 04:21:06;;;;;;;2.08;0.95;;;16.00;70.80;;;;;;5095232;28;20525;-72
2021/05/29 04:23:32;;;;;;;2.72;1.20;;;16.00;71.50;;;;;;5095267;28;20020;-72
2021/05/29 04:25:58;;;;;;;5.82;1.30;;;16.00;71.00;;;;;;5094825;28;20421;-73
2021/05/29 04:28:23;;;;;;;5.35;1.50;;;16.00;70.90;;;;;;5094604;28;20116;-71
2021/05/29 04:30:49;;;;;;;4.15;1.20;;;16.10;70.90;;;;;;5094691;28;20168;-72
2021/05/29 04:33:15;;;;;;;5.25;1.30;;;16.10;70.70;;;;;;5094843;28;20098;-72
2021/05/29 04:35:41;;;;;;;3.25;1.30;;;16.10;70.80;;;;;;5094444;28;20476;-72
2021/05/29 04:38:06;;;;;;;1.92;1.10;;;16.10;71.20;;;;;;5094575;28;20380;-72
2021/05/29 04:40:32;;;;;;;2.45;1.13;;;16.10;71.60;;;;;;5094708;28;20028;-74
2021/05/29 04:43:00;;;;;;;2.65;1.10;;;16.10;72.00;;;;;;5094620;28;20024;-72
2021/05/29 04:45:26;;;;;;;3.92;1.10;;;16.10;72.10;;;;;;5075738;28;20024;-72
2021/05/29 04:47:53;;;;;;;5.28;1.50;;;16.10;72.10;;;;;;5093821;28;20031;-72
2021/05/29 04:50:19;;;;;;;3.00;1.25;;;16.20;72.30;;;;;;5094789;28;20020;-71
2021/05/29 04:52:45;;;;;;;2.22;1.20;;;16.20;72.40;;;;;;5094730;28;20035;-73
2021/05/29 04:55:12;;;;;;;5.35;1.23;;;16.30;72.20;;;;;;5076357;28;20035;-71
2021/05/29 04:57:38;;;;;;;1.90;1.10;;;16.30;72.00;;;;;;5094704;28;20035;-72
2021/05/29 05:00:08;;;;;;;4.57;1.38;;;16.30;72.00;;;;;;5094250;28;20016;-72
2021/05/29 05:02:34;;;;;;;4.18;1.30;;;16.40;72.20;;;;;;5094385;28;20429;-71
2021/05/29 05:05:00;;;;;;;4.82;1.50;;;16.40;71.90;;;;;;5094548;28;20107;-71
2021/05/29 05:07:25;;;;;;;3.75;1.30;;;16.40;71.80;;;;;;5094329;28;20078;-72
2021/05/29 05:09:51;;;;;;;7.82;1.23;;;16.40;71.70;;;;;;5094135;28;20493;-72
2021/05/29 05:12:17;;;;;;;3.63;1.30;;;16.50;71.80;;;;;;5094251;28;20023;-72
2021/05/29 05:14:43;;;;;;;4.15;1.35;;;16.50;72.50;;;;;;5094276;28;20024;-72
2021/05/29 05:17:08;;;;;;;4.95;1.10;;;16.50;72.70;;;;;;5093190;28;20111;-72
2021/05/29 05:19:34;;;;;;;4.35;1.15;;;16.60;72.50;;;;;;5093362;28;20032;-72
2021/05/29 05:22:00;;;;;;;5.35;1.17;;;16.60;72.10;;;;;;5092236;28;20361;-72
2021/05/29 05:24:25;;;;;;;4.78;1.20;;;16.60;72.10;;;;;;5092940;28;20048;-71
2021/05/29 05:26:51;;;;;;;4.93;1.45;;;16.70;72.30;;;;;;5094074;28;20077;-72
2021/05/29 05:29:17;;;;;;;4.65;1.30;;;16.60;72.50;;;;;;5093684;28;20490;-72
2021/05/29 05:31:44;;;;;;;2.20;1.10;;;16.60;72.70;;;;;;5093718;28;20028;-73
2021/05/29 05:34:10;;;;;;;2.83;1.23;;;16.70;72.80;;;;;;5093768;28;20051;-72
2021/05/29 05:36:38;;;;;;;5.10;1.40;;;16.70;72.70;;;;;;5093619;28;20028;-72
2021/05/29 05:39:06;;;;;;;1.15;0.93;;;16.80;72.70;;;;;;5093517;28;20020;-72
2021/05/29 05:41:32;;;;;;;3.88;0.90;;;16.90;72.00;;;;;;5093614;28;20035;-72
2021/05/29 05:43:58;;;;;;;1.48;1.02;;;16.90;71.30;;;;;;5092420;28;20028;-72
2021/05/29 05:46:23;;;;;;;4.20;1.17;;;16.90;70.70;;;;;;5074251;28;20353;-72
2021/05/29 05:48:50;;;;;;;7.60;2.03;;;17.00;70.40;;;;;;5093157;28;20031;-71
2021/05/29 05:51:16;;;;;;;4.57;1.85;;;17.10;71.60;;;;;;5093074;28;20494;-72
2021/05/29 05:53:41;;;;;;;13.95;2.15;;;17.10;72.30;;;;;;5093326;28;20030;-72
2021/05/29 05:56:08;;;;;;;5.07;1.98;;;17.10;72.70;;;;;;5093385;28;20384;-72
2021/05/29 05:58:36;;;;;;;5.97;1.83;;;17.10;72.90;;;;;;5092776;28;20020;-72
2021/05/29 06:01:04;;;;;;;3.90;1.90;;;17.20;73.10;;;;;;5092453;28;20035;-72
2021/05/29 06:03:30;;;;;;;5.38;1.90;;;17.20;73.40;;;;;;5092794;28;20030;-72
2021/05/29 06:05:56;;;;;;;5.20;2.10;;;17.30;73.60;;;;;;5091673;28;20387;-71
2021/05/29 06:08:21;;;;;;;9.60;1.90;;;17.30;73.70;;;;;;5089960;28;20115;-71
2021/05/29 06:10:48;;;;;;;6.90;2.22;;;17.30;73.60;;;;;;5091756;28;20025;-71
2021/05/29 06:13:28;;;;;;;7.03;2.00;;;17.30;73.50;;;;;;5091559;28;20070;-71
2021/05/29 06:21:07;;;;;;;5.30;2.10;;;17.40;72.20;;;;;;5091094;28;20024;-67
2021/05/29 06:23:33;;;;;;;5.20;2.33;;;17.50;71.90;;;;;;5091231;28;20028;-69
2021/05/29 06:25:58;;;;;;;5.47;2.30;;;17.50;71.70;;;;;;5091146;28;20028;-69
2021/05/29 06:28:24;;;;;;;6.40;2.30;;;17.60;71.30;;;;;;5072864;28;20519;-68
2021/05/29 06:30:50;;;;;;;3.95;2.28;;;17.60;71.10;;;;;;5091208;28;20028;-68
2021/05/29 06:33:15;;;;;;;4.35;1.80;;;17.60;70.80;;;;;;5091142;28;20032;-65
2021/05/29 06:35:41;;;;;;;1.55;1.10;;;17.70;70.60;;;;;;5091868;28;20093;-66
2021/05/29 06:38:07;;;;;;;2.67;1.40;;;17.70;69.60;;;;;;5090816;28;20066;-65
2021/05/29 06:40:33;;;;;;;3.38;1.10;;;17.80;69.20;;;;;;5091278;28;20384;-65
2021/05/29 06:42:58;;;;;;;3.50;1.20;;;17.80;68.60;;;;;;5090912;28;20028;-65
2021/05/29 06:45:24;;;;;;;2.75;0.80;;;17.90;68.30;;;;;;5091266;28;20486;-65
2021/05/29 06:47:50;;;;;;;3.58;1.25;;;17.90;68.20;;;;;;5091507;28;20423;-66
2021/05/29 06:50:16;;;;;;;1.33;0.95;;;17.90;68.10;;;;;;5091308;28;20030;-65
2021/05/29 06:52:45;;;;;;;3.65;1.02;;;18.00;68.10;;;;;;5082231;28;20032;-65
2021/05/29 07:00:40;;;;;;;2.22;1.15;;;18.20;67.70;;;;;;5072782;28;20070;-68
2021/05/29 07:03:05;;;;;;;3.30;1.00;;;18.30;67.10;;;;;;5069500;28;20525;-66
2021/05/29 07:05:31;;;;;;;3.25;1.10;;;18.20;66.30;;;;;;5070602;28;20381;-69
2021/05/29 07:07:57;;;;;;;2.85;1.00;;;18.30;65.80;;;;;;5070499;28;20139;-67
2021/05/29 07:10:23;;;;;;;3.92;1.10;;;18.30;64.80;;;;;;5071030;28;20067;-67
2021/05/29 07:12:49;;;;;;;1.52;0.77;;;18.40;64.60;;;;;;5071030;28;20445;-69
2021/05/29 07:15:15;;;;;;;1.13;0.90;;;18.40;64.30;;;;;;5070717;28;20078;-67
2021/05/29 07:17:43;;;;;;;2.00;0.90;;;18.40;64.50;;;;;;5071738;28;20388;-68
2021/05/29 07:20:10;;;;;;;2.35;0.93;;;18.50;64.50;;;;;;5071695;28;20066;-68
2021/05/29 07:22:36;;;;;;;3.00;0.88;;;18.50;64.60;;;;;;5071754;28;20046;-67
2021/05/29 07:25:07;;;;;;;2.67;0.85;;;18.60;64.50;;;;;;5070685;28;20027;-67
2021/05/29 07:27:32;;;;;;;1.80;1.00;;;18.70;64.80;;;;;;5071844;28;20366;-70
2021/05/29 07:29:58;;;;;;;2.47;1.00;;;18.70;63.90;;;;;;5072020;28;20090;-70
2021/05/29 07:32:24;;;;;;;1.63;0.80;;;18.80;63.30;;;;;;5075597;28;20412;-67
2021/05/29 07:34:51;;;;;;;2.15;0.90;;;18.80;62.20;;;;;;5075863;28;20025;-66
2021/05/29 07:37:17;;;;;;;4.63;0.90;;;18.80;62.10;;;;;;5075146;28;20044;-67
2021/05/29 07:39:43;;;;;;;4.20;0.77;;;18.90;61.50;;;;;;5074272;28;20028;-66
2021/05/29 07:42:09;;;;;;;2.28;1.00;;;18.90;61.30;;;;;;5074761;28;20058;-68
2021/05/29 07:44:34;;;;;;;6.32;0.90;;;19.00;61.80;;;;;;5075426;28;20025;-69
2021/05/29 07:47:00;;;;;;;3.15;0.80;;;19.00;61.50;;;;;;5075753;28;20028;-68
2021/05/29 07:49:27;;;;;;;2.38;1.00;;;19.10;61.60;;;;;;5074847;28;20158;-68
2021/05/29 07:51:52;;;;;;;2.00;0.90;;;19.10;60.60;;;;;;5074696;28;20012;-67
2021/05/29 07:54:18;;;;;;;2.20;0.75;;;19.10;60.70;;;;;;5073948;28;20357;-68
2021/05/29 07:56:44;;;;;;;1.77;0.98;;;19.10;61.30;;;;;;5075162;28;20032;-66
2021/05/29 07:59:12;;;;;;;1.65;0.90;;;19.20;61.30;;;;;;5074868;28;20380;-66
2021/05/29 08:01:38;;;;;;;3.08;0.70;;;19.20;61.50;;;;;;5075504;28;20078;-67
2021/05/29 08:04:04;;;;;;;4.45;1.10;;;19.30;61.50;;;;;;5075544;28;20488;-66
2021/05/29 08:06:30;;;;;;;4.07;1.10;;;19.30;61.70;;;;;;5075473;28;20380;-66
2021/05/29 08:08:56;;;;;;;2.45;0.85;;;19.30;62.00;;;;;;5075101;28;20583;-64
2021/05/29 08:11:22;;;;;;;4.88;0.88;;;19.40;61.70;;;;;;5075086;28;20099;-66
2021/05/29 08:13:50;;;;;;;2.78;1.00;;;19.40;61.50;;;;;;5075237;28;20465;-66
2021/05/29 08:16:17;;;;;;;3.53;1.00;;;19.40;61.80;;;;;;5075216;28;20108;-67
2021/05/29 08:18:43;;;;;;;3.00;0.88;;;19.50;61.90;;;;;;5075091;28;20032;-66
2021/05/29 08:21:09;;;;;;;6.18;1.10;;;19.50;61.70;;;;;;5074714;28;20076;-66
2021/05/29 08:23:35;;;;;;;1.40;0.95;;;19.60;61.50;;;;;;5074932;28;20384;-67
2021/05/29 08:26:01;;;;;;;1.58;0.88;;;19.60;61.70;;;;;;5074688;28;20020;-66
2021/05/29 08:28:27;;;;;;;3.15;1.10;;;19.60;61.50;;;;;;5098816;22;20048;-68
2021/05/29 08:30:52;;;;;;;3.03;1.00;;;19.70;61.50;;;;;;5115380;28;20031;-67
2021/05/29 08:33:18;;;;;;;2.08;1.15;;;19.80;61.70;;;;;;5115288;28;20376;-68
2021/05/29 08:35:44;;;;;;;6.00;1.10;;;19.80;61.90;;;;;;5096919;28;20040;-68
2021/05/29 08:38:10;;;;;;;5.78;0.93;;;19.90;61.50;;;;;;5115215;28;20024;-68
2021/05/29 08:40:36;;;;;;;2.08;0.90;;;19.90;61.30;;;;;;5096974;28;20348;-68
2021/05/29 08:43:02;;;;;;;3.65;1.10;;;20.00;61.10;;;;;;5114843;28;20375;-68
2021/05/29 08:45:28;;;;;;;2.85;1.13;;;20.00;60.60;;;;;;5115139;28;20039;-68
2021/05/29 08:47:54;;;;;;;7.80;1.10;;;20.10;61.40;;;;;;5115052;28;20541;-68
2021/05/29 08:50:21;;;;;;;6.70;0.98;;;20.20;61.10;;;;;;5114679;28;20035;-68
2021/05/29 08:52:47;;;;;;;1.35;0.70;;;20.20;60.90;;;;;;5114980;28;20426;-68
2021/05/29 08:55:15;;;;;;;4.88;0.90;;;20.30;60.70;;;;;;5114889;28;20118;-68
2021/05/29 08:57:41;;;;;;;2.72;1.00;;;20.40;56.40;;;;;;5096928;28;20020;-68
2021/05/29 09:00:10;;;;;;;3.95;1.00;;;20.40;57.70;;;;;;5114817;28;20019;-68
2021/05/29 09:02:56;;;;;;;6.47;1.00;;;20.50;58.70;;;;;;5114849;28;20026;-68
2021/05/29 09:05:44;;;;;;;2.42;0.88;;;20.50;59.30;;;;;;5114805;28;20549;-68
2021/05/29 09:08:13;;;;;;;2.70;0.90;;;20.50;59.00;;;;;;5114931;28;20396;-68
2021/05/29 09:10:42;;;;;;;5.55;0.88;;;20.50;58.80;;;;;;5114566;28;20471;-67
2021/05/29 09:13:11;;;;;;;2.25;1.00;;;20.60;59.50;;;;;;5114108;28;20024;-67
2021/05/29 09:15:52;;;;;;;4.43;0.90;;;20.60;59.00;;;;;;5113271;28;20123;-68
2021/05/29 09:18:25;;;;;;;1.38;0.80;;;20.70;58.10;;;;;;5114477;28;20180;-68
2021/05/29 09:20:51;;;;;;;2.17;0.90;;;20.70;57.80;;;;;;5112625;28;20094;-68
2021/05/29 09:23:17;;;;;;;1.77;0.75;;;20.70;58.50;;;;;;5111531;28;20032;-67
2021/05/29 09:25:54;;;;;;;3.85;1.00;;;20.90;58.60;;;;;;5110758;28;20019;-67
2021/05/29 09:28:24;;;;;;;1.95;0.98;;;20.90;59.00;;;;;;5110401;28;20063;-71
2021/05/29 09:30:53;;;;;;;1.70;0.90;;;21.00;57.00;;;;;;5111032;28;20059;-68
2021/05/29 09:33:18;;;;;;;2.22;1.48;;;21.10;57.00;;;;;;5111519;28;20038;-68
2021/05/29 09:35:49;;;;;;;3.90;0.80;;;21.10;55.90;;;;;;5114151;28;20036;-68
2021/05/29 09:38:15;;;;;;;3.67;1.00;;;21.20;55.90;;;;;;5113857;28;20028;-68
2021/05/29 09:40:52;;;;;;;1.42;0.90;;;21.20;56.30;;;;;;5114108;28;20109;-68
2021/05/29 09:43:18;;;;;;;1.80;1.13;;;21.20;55.60;;;;;;5114241;28;20062;-68
2021/05/29 09:45:43;;;;;;;4.38;1.00;;;21.20;56.40;;;;;;5114007;28;20062;-67
2021/05/29 09:48:12;;;;;;;3.00;0.98;;;21.20;56.30;;;;;;5113868;28;20020;-68
2021/05/29 09:51:03;;;;;;;1.50;1.00;;;21.10;56.50;;;;;;5113971;28;20020;-68
2021/05/29 09:53:42;;;;;;;2.03;0.80;;;21.20;56.90;;;;;;5099685;28;20032;-68
2021/05/29 09:56:31;;;;;;;7.75;1.20;;;21.20;57.40;;;;;;5114097;28;20085;-68
2021/05/29 09:59:12;;;;;;;6.20;1.52;;;21.30;57.60;;;;;;5097797;28;20391;-68
2021/05/29 10:01:41;;;;;;;2.20;1.30;;;21.30;56.90;;;;;;5112535;28;20031;-68
2021/05/29 10:04:09;;;;;;;6.18;1.05;;;21.40;56.30;;;;;;5113069;28;20030;-67
2021/05/29 10:06:35;;;;;;;2.58;1.23;;;21.40;55.50;;;;;;5112561;28;20031;-68
2021/05/29 10:09:02;;;;;;;3.17;0.90;;;21.50;56.20;;;;;;5113449;28;20073;-68
2021/05/29 10:11:31;;;;;;;1.88;1.20;;;21.40;54.90;;;;;;5112738;28;20027;-68
2021/05/29 10:13:56;;;;;;;2.45;1.30;;;21.50;57.90;;;;;;5112873;28;20415;-68
2021/05/29 10:16:23;;;;;;;4.78;1.95;;;21.50;58.10;;;;;;5112405;28;20036;-68
2021/05/29 10:18:54;;;;;;;1.90;1.10;;;21.70;59.00;;;;;;5095052;28;20107;-68
2021/05/29 10:21:21;;;;;;;3.83;0.80;;;21.80;59.20;;;;;;5113076;28;20360;-68
2021/05/29 10:23:48;;;;;;;3.88;1.15;;;22.00;58.30;;;;;;5113072;28;20024;-68
2021/05/29 10:26:17;;;;;;;4.32;1.02;;;22.10;57.10;;;;;;5113434;28;20028;-68
2021/05/29 10:28:45;;;;;;;1.38;1.20;;;22.30;57.60;;;;;;5113156;28;20051;-67
2021/05/29 10:31:12;;;;;;;4.60;1.10;;;22.40;58.50;;;;;;5113626;28;20491;-68
2021/05/29 10:33:42;;;;;;;1.63;1.00;;;22.50;58.50;;;;;;5113274;28;20039;-67
2021/05/29 10:36:08;;;;;;;2.47;1.20;;;22.60;55.90;;;;;;5113499;28;20036;-68
2021/05/29 10:38:49;;;;;;;5.60;2.20;;;22.60;55.80;;;;;;5113471;28;20095;-68
2021/05/29 10:41:15;;;;;;;3.30;1.35;;;22.60;56.30;;;;;;5113752;28;20031;-68
2021/05/29 10:43:40;;;;;;;4.45;1.40;;;22.50;56.90;;;;;;5113289;28;20419;-68
2021/05/29 10:46:11;;;;;;;3.95;2.70;;;22.50;57.30;;;;;;5113477;28;20024;-68
2021/05/29 10:48:49;;;;;;;3.13;2.10;;;22.50;58.30;;;;;;5113436;28;20019;-68
2021/05/29 10:51:15;;;;;;;20.52;12.70;;;22.50;56.90;;;;;;5113421;28;20091;-67
2021/05/29 10:53:54;;;;;;;6.43;3.22;;;22.40;57.00;;;;;;5113384;28;20028;-68
2021/05/29 10:56:22;;;;;;;11.73;7.32;;;22.60;56.60;;;;;;5113196;28;20031;-68
2021/05/29 10:58:55;;;;;;;9.80;5.13;;;22.70;57.70;;;;;;5094927;28;20034;-68
2021/05/29 11:01:22;;;;;;;3.85;1.33;;;22.80;57.50;;;;;;5113230;28;20099;-67
2021/05/29 11:04:08;;;;;;;5.28;1.65;;;22.90;54.30;;;;;;5113026;28;20020;-68
2021/05/29 11:06:33;;;;;;;2.03;1.25;;;22.90;54.80;;;;;;5116577;28;20052;-67
2021/05/29 11:09:01;;;;;;;5.85;1.20;;;23.00;53.50;;;;;;5117141;28;20051;-68
2021/05/29 11:11:46;;;;;;;4.55;1.25;;;23.10;54.30;;;;;;5117131;28;20117;-68
2021/05/29 11:14:18;;;;;;;1.27;1.10;;;23.20;53.20;;;;;;5117102;28;20031;-67
2021/05/29 11:17:07;;;;;;;3.03;1.08;;;23.30;49.40;;;;;;5117142;28;20073;-68
2021/05/29 11:19:34;;;;;;;2.38;0.90;;;23.30;50.40;;;;;;5101563;28;20051;-68
2021/05/29 11:22:12;;;;;;;5.18;1.05;;;23.40;51.60;;;;;;5116903;28;20028;-68
2021/05/29 11:24:43;;;;;;;4.70;1.17;;;23.50;51.00;;;;;;5116726;28;20470;-67
2021/05/29 11:27:21;;;;;;;1.92;0.90;;;23.50;51.10;;;;;;5116735;28;20020;-68
2021/05/29 11:29:50;;;;;;;7.45;1.10;;;23.60;50.20;;;;;;5116242;28;20052;-68
2021/05/29 11:32:35;;;;;;;3.38;1.10;;;23.70;51.00;;;;;;5116601;28;20027;-68
2021/05/29 11:35:00;;;;;;;5.05;1.50;;;23.90;50.30;;;;;;5116644;28;20471;-68
2021/05/29 11:37:26;;;;;;;1.52;1.00;;;24.00;50.30;;;;;;5116643;28;20032;-68
2021/05/29 11:39:53;;;;;;;2.63;0.95;;;24.10;49.90;;;;;;5116667;28;20027;-68
2021/05/29 11:42:18;;;;;;;3.83;1.10;;;24.30;49.80;;;;;;5116404;28;20376;-67
2021/05/29 11:44:44;;;;;;;1.35;1.00;;;24.40;49.20;;;;;;5116292;28;20107;-67
2021/05/29 11:47:17;;;;;;;4.75;1.00;;;24.50;50.20;;;;;;5116192;28;20051;-67
2021/05/29 11:49:43;;;;;;;1.42;0.90;;;24.60;49.70;;;;;;5116184;28;20023;-68
2021/05/29 11:52:10;;;;;;;3.08;1.00;;;24.70;46.90;;;;;;5116471;28;20027;-68
2021/05/29 11:54:37;;;;;;;2.22;1.00;;;24.70;48.00;;;;;;5116397;28;20024;-67
2021/05/29 11:57:05;;;;;;;2.38;1.25;;;24.70;48.10;;;;;;5116247;28;20418;-67
2021/05/29 11:59:32;;;;;;;2.75;1.00;;;24.60;48.10;;;;;;5115975;28;20055;-68
2021/05/29 12:01:58;;;;;;;4.22;0.93;;;24.50;49.40;;;;;;5115999;28;20038;-68
2021/05/29 12:04:29;;;;;;;3.13;0.90;;;24.50;48.20;;;;;;5115938;28;20027;-68
2021/05/29 12:07:02;;;;;;;1.45;1.00;;;24.30;48.50;;;;;;5115962;28;20015;-68
2021/05/29 12:09:30;;;;;;;3.67;1.30;;;24.30;49.60;;;;;;5115920;28;20024;-68
2021/05/29 12:12:04;;;;;;;3.40;1.00;;;24.20;48.30;;;;;;5115963;28;20039;-68
2021/05/29 12:14:34;;;;;;;1.48;0.80;;;24.20;48.90;;;;;;5115837;28;20076;-68
2021/05/29 12:17:06;;;;;;;2.42;1.92;;;24.10;46.80;;;;;;5115003;28;20032;-68
2021/05/29 12:19:38;;;;;;;5.07;1.67;;;24.00;47.00;;;;;;5115819;28;20042;-68
2021/05/29 12:22:15;;;;;;;2.97;1.10;;;24.00;46.00;;;;;;5115889;28;20435;-67
2021/05/29 12:24:46;;;;;;;2.78;1.10;;;23.90;46.80;;;;;;5115621;28;20023;-68
2021/05/29 12:27:17;;;;;;;1.55;1.00;;;23.80;46.20;;;;;;5115545;28;20020;-68
2021/05/29 12:29:43;;;;;;;1.85;1.20;;;23.80;46.00;;;;;;5115565;28;20039;-68
2021/05/29 12:32:10;;;;;;;1.90;0.88;;;23.70;47.20;;;;;;5115607;28;20062;-68
2021/05/29 12:34:48;;;;;;;2.53;1.10;;;23.70;47.30;;;;;;5115336;28;20103;-68
2021/05/29 12:37:15;;;;;;;3.10;0.95;;;23.70;44.70;;;;;;5115343;28;20399;-68
2021/05/29 12:39:45;;;;;;;5.18;0.90;;;23.70;44.90;;;;;;5115344;28;20051;-68
2021/05/29 12:42:38;;;;;;;1.48;0.82;;;23.80;46.80;;;;;;5115364;28;20083;-68
2021/05/29 12:45:19;;;;;;;2.33;1.05;;;23.90;45.40;;;;;;5114898;28;20027;-68
2021/05/29 12:47:55;;;;;;;4.05;1.10;;;24.00;45.20;;;;;;5115186;28;20032;-68
2021/05/29 12:50:27;;;;;;;2.33;0.90;;;24.00;46.40;;;;;;5115089;28;20058;-68
2021/05/29 12:52:53;;;;;;;;;;;24.10;44.50;;;;;;5115558;28;20103;-68
2021/05/29 12:55:19;;;;;;;2.97;0.80;;;24.10;43.20;;;;;;5114843;28;19939;-67
2021/05/29 12:57:45;;;;;;;4.32;0.82;;;24.20;44.50;;;;;;5114855;28;20070;-68
2021/05/29 13:00:30;;;;;;;2.25;1.00;;;24.30;44.90;;;;;;5114751;28;20047;-68
2021/05/29 13:09:05;;;;;;;0.85;0.70;;;24.50;45.90;;;;;;5114177;28;20593;-72